sensor_id;sensor_type;location;lat;lon;timestamp;P1;durP1;ratioP1;P2;durP2;ratioP2
10959;SDS011;5532;50.978;13.872;2022-07-04T00:02:18;4.10;;;3.80;;
10959;SDS011;5532;50.978;13.872;2022-07-04T00:04:43;4.55;;;4.15;;
10959;SDS011;5532;50.978;13.872;2022-07-04T00:07:08;4.10;;;3.80;;
10959;SDS011;5532;50.978;13.872;2022-07-04T00:09:34;4.38;;;3.97;;
10959;SDS011;5532;50.978;13.872;2022-07-04T00:11:59;4.32;;;3.92;;
10959;SDS011;5532;50.978;13.872;2022-07-04T00:14:24;4.78;;;4.38;;
10959;SDS011;5532;50.978;13.872;2022-07-04T00:16:50;4.63;;;4.23;;
10959;SDS011;5532;50.978;13.872;2022-07-04T00:19:15;4.65;;;4.25;;
10959;SDS011;5532;50.978;13.872;2022-07-04T00:21:40;4.40;;;4.00;;
10959;SDS011;5532;50.978;13.872;2022-07-04T00:24:06;4.45;;;4.05;;
10959;SDS011;5532;50.978;13.872;2022-07-04T00:26:31;4.43;;;4.03;;
10959;SDS011;5532;50.978;13.872;2022-07-04T00:28:56;4.27;;;3.87;;
10959;SDS011;5532;50.978;13.872;2022-07-04T00:31:22;5.23;;;4.23;;
10959;SDS011;5532;50.978;13.872;2022-07-04T00:33:47;4.57;;;4.18;;
10959;SDS011;5532;50.978;13.872;2022-07-04T00:36:12;6.78;;;4.65;;
10959;SDS011;5532;50.978;13.872;2022-07-04T00:38:38;4.45;;;4.05;;
10959;SDS011;5532;50.978;13.872;2022-07-04T00:41:03;4.53;;;4.13;;
10959;SDS011;5532;50.978;13.872;2022-07-04T00:43:29;4.85;;;4.43;;
10959;SDS011;5532;50.978;13.872;2022-07-04T00:45:54;5.80;;;4.22;;
10959;SDS011;5532;50.978;13.872;2022-07-04T00:48:20;4.45;;;3.80;;
10959;SDS011;5532;50.978;13.872;2022-07-04T00:50:46;4.72;;;4.32;;
10959;SDS011;5532;50.978;13.872;2022-07-04T00:53:12;6.10;;;4.25;;
10959;SDS011;5532;50.978;13.872;2022-07-04T00:55:38;4.70;;;4.30;;
10959;SDS011;5532;50.978;13.872;2022-07-04T00:58:04;4.35;;;3.95;;
10959;SDS011;5532;50.978;13.872;2022-07-04T01:00:30;5.20;;;4.70;;
10959;SDS011;5532;50.978;13.872;2022-07-04T01:02:56;4.70;;;4.28;;
10959;SDS011;5532;50.978;13.872;2022-07-04T01:05:21;5.00;;;4.57;;
10959;SDS011;5532;50.978;13.872;2022-07-04T01:07:46;5.00;;;4.60;;
10959;SDS011;5532;50.978;13.872;2022-07-04T01:10:12;6.15;;;4.88;;
10959;SDS011;5532;50.978;13.872;2022-07-04T01:12:37;7.65;;;5.50;;
10959;SDS011;5532;50.978;13.872;2022-07-04T01:15:03;7.65;;;6.47;;
10959;SDS011;5532;50.978;13.872;2022-07-04T01:17:30;7.30;;;5.88;;
10959;SDS011;5532;50.978;13.872;2022-07-04T01:19:55;8.60;;;5.90;;
10959;SDS011;5532;50.978;13.872;2022-07-04T01:22:21;8.97;;;6.00;;
10959;SDS011;5532;50.978;13.872;2022-07-04T01:24:47;9.57;;;5.88;;
10959;SDS011;5532;50.978;13.872;2022-07-04T01:27:13;9.77;;;5.53;;
10959;SDS011;5532;50.978;13.872;2022-07-04T01:29:39;7.10;;;5.78;;
10959;SDS011;5532;50.978;13.872;2022-07-04T01:32:05;7.88;;;5.32;;
10959;SDS011;5532;50.978;13.872;2022-07-04T01:34:31;7.03;;;5.45;;
10959;SDS011;5532;50.978;13.872;2022-07-04T01:36:56;7.03;;;5.40;;
10959;SDS011;5532;50.978;13.872;2022-07-04T01:39:23;6.57;;;5.30;;
10959;SDS011;5532;50.978;13.872;2022-07-04T01:41:48;8.98;;;5.05;;
10959;SDS011;5532;50.978;13.872;2022-07-04T01:44:14;7.50;;;4.90;;
10959;SDS011;5532;50.978;13.872;2022-07-04T01:46:39;7.37;;;5.07;;
10959;SDS011;5532;50.978;13.872;2022-07-04T01:49:04;5.63;;;4.47;;
10959;SDS011;5532;50.978;13.872;2022-07-04T01:51:30;6.13;;;4.65;;
10959;SDS011;5532;50.978;13.872;2022-07-04T01:53:55;3.67;;;3.22;;
10959;SDS011;5532;50.978;13.872;2022-07-04T01:56:20;3.73;;;3.00;;
10959;SDS011;5532;50.978;13.872;2022-07-04T01:58:46;3.38;;;3.08;;
10959;SDS011;5532;50.978;13.872;2022-07-04T02:01:11;2.83;;;2.53;;
10959;SDS011;5532;50.978;13.872;2022-07-04T02:03:58;2.65;;;2.45;;
10959;SDS011;5532;50.978;13.872;2022-07-04T02:06:25;2.70;;;2.45;;
10959;SDS011;5532;50.978;13.872;2022-07-04T02:08:50;3.17;;;2.40;;
10959;SDS011;5532;50.978;13.872;2022-07-04T02:11:34;2.50;;;2.30;;
10959;SDS011;5532;50.978;13.872;2022-07-04T02:16:44;2.33;;;2.07;;
10959;SDS011;5532;50.978;13.872;2022-07-04T02:19:09;2.33;;;2.13;;
10959;SDS011;5532;50.978;13.872;2022-07-04T02:21:34;2.58;;;2.00;;
10959;SDS011;5532;50.978;13.872;2022-07-04T02:24:00;2.63;;;2.40;;
10959;SDS011;5532;50.978;13.872;2022-07-04T02:26:25;2.75;;;1.98;;
10959;SDS011;5532;50.978;13.872;2022-07-04T02:28:51;4.00;;;2.37;;
10959;SDS011;5532;50.978;13.872;2022-07-04T02:31:16;2.90;;;2.13;;
10959;SDS011;5532;50.978;13.872;2022-07-04T02:33:42;3.20;;;2.40;;
10959;SDS011;5532;50.978;13.872;2022-07-04T02:36:07;4.55;;;2.47;;
10959;SDS011;5532;50.978;13.872;2022-07-04T02:38:32;2.43;;;2.20;;
10959;SDS011;5532;50.978;13.872;2022-07-04T02:40:58;2.53;;;2.30;;
10959;SDS011;5532;50.978;13.872;2022-07-04T02:43:23;2.67;;;2.40;;
10959;SDS011;5532;50.978;13.872;2022-07-04T02:45:48;2.73;;;2.53;;
10959;SDS011;5532;50.978;13.872;2022-07-04T02:48:14;11.53;;;2.63;;
10959;SDS011;5532;50.978;13.872;2022-07-04T02:50:39;2.85;;;2.50;;
10959;SDS011;5532;50.978;13.872;2022-07-04T02:53:04;5.47;;;2.80;;
10959;SDS011;5532;50.978;13.872;2022-07-04T02:55:30;2.40;;;2.20;;
10959;SDS011;5532;50.978;13.872;2022-07-04T02:57:55;2.85;;;2.33;;
10959;SDS011;5532;50.978;13.872;2022-07-04T03:00:20;3.87;;;2.50;;
10959;SDS011;5532;50.978;13.872;2022-07-04T03:02:46;2.33;;;2.13;;
10959;SDS011;5532;50.978;13.872;2022-07-04T03:05:11;2.33;;;2.03;;
10959;SDS011;5532;50.978;13.872;2022-07-04T03:07:36;3.85;;;2.72;;
10959;SDS011;5532;50.978;13.872;2022-07-04T03:10:02;2.53;;;2.20;;
10959;SDS011;5532;50.978;13.872;2022-07-04T03:12:27;2.75;;;2.22;;
10959;SDS011;5532;50.978;13.872;2022-07-04T03:14:52;2.07;;;1.87;;
10959;SDS011;5532;50.978;13.872;2022-07-04T03:17:19;2.33;;;2.13;;
10959;SDS011;5532;50.978;13.872;2022-07-04T03:19:44;3.30;;;2.00;;
10959;SDS011;5532;50.978;13.872;2022-07-04T03:22:10;2.50;;;2.30;;
10959;SDS011;5532;50.978;13.872;2022-07-04T03:24:35;2.60;;;2.17;;
10959;SDS011;5532;50.978;13.872;2022-07-04T03:27:00;2.45;;;2.15;;
10959;SDS011;5532;50.978;13.872;2022-07-04T03:29:26;3.72;;;2.30;;
10959;SDS011;5532;50.978;13.872;2022-07-04T03:31:51;4.40;;;2.53;;
10959;SDS011;5532;50.978;13.872;2022-07-04T03:34:16;2.13;;;1.90;;
10959;SDS011;5532;50.978;13.872;2022-07-04T03:36:42;2.50;;;2.30;;
10959;SDS011;5532;50.978;13.872;2022-07-04T03:39:07;2.92;;;2.20;;
10959;SDS011;5532;50.978;13.872;2022-07-04T03:41:32;4.17;;;2.20;;
10959;SDS011;5532;50.978;13.872;2022-07-04T03:43:58;3.72;;;2.08;;
10959;SDS011;5532;50.978;13.872;2022-07-04T03:46:23;2.53;;;2.30;;
10959;SDS011;5532;50.978;13.872;2022-07-04T03:48:48;3.17;;;2.08;;
10959;SDS011;5532;50.978;13.872;2022-07-04T03:51:14;3.60;;;2.38;;
10959;SDS011;5532;50.978;13.872;2022-07-04T03:53:39;3.80;;;1.92;;
10959;SDS011;5532;50.978;13.872;2022-07-04T03:56:05;2.58;;;2.00;;
10959;SDS011;5532;50.978;13.872;2022-07-04T03:58:30;2.35;;;2.15;;
10959;SDS011;5532;50.978;13.872;2022-07-04T04:00:55;2.30;;;2.10;;
10959;SDS011;5532;50.978;13.872;2022-07-04T04:03:23;5.22;;;2.38;;
10959;SDS011;5532;50.978;13.872;2022-07-04T04:06:06;2.30;;;2.10;;
10959;SDS011;5532;50.978;13.872;2022-07-04T04:08:32;2.63;;;2.40;;
10959;SDS011;5532;50.978;13.872;2022-07-04T04:10:58;5.17;;;2.53;;
10959;SDS011;5532;50.978;13.872;2022-07-04T04:13:23;2.22;;;1.98;;
10959;SDS011;5532;50.978;13.872;2022-07-04T04:15:48;4.23;;;2.30;;
10959;SDS011;5532;50.978;13.872;2022-07-04T04:18:14;3.70;;;2.40;;
10959;SDS011;5532;50.978;13.872;2022-07-04T04:20:39;4.43;;;2.08;;
10959;SDS011;5532;50.978;13.872;2022-07-04T04:23:04;3.50;;;2.20;;
10959;SDS011;5532;50.978;13.872;2022-07-04T04:25:30;3.05;;;2.22;;
10959;SDS011;5532;50.978;13.872;2022-07-04T04:27:55;3.42;;;2.20;;
10959;SDS011;5532;50.978;13.872;2022-07-04T04:30:20;3.30;;;2.08;;
10959;SDS011;5532;50.978;13.872;2022-07-04T04:32:46;4.88;;;2.30;;
10959;SDS011;5532;50.978;13.872;2022-07-04T04:35:11;3.17;;;2.45;;
10959;SDS011;5532;50.978;13.872;2022-07-04T04:37:36;3.60;;;2.22;;
10959;SDS011;5532;50.978;13.872;2022-07-04T04:40:02;3.35;;;2.10;;
10959;SDS011;5532;50.978;13.872;2022-07-04T04:42:27;3.17;;;2.30;;
10959;SDS011;5532;50.978;13.872;2022-07-04T04:44:53;2.40;;;2.17;;
10959;SDS011;5532;50.978;13.872;2022-07-04T04:47:18;2.97;;;2.10;;
10959;SDS011;5532;50.978;13.872;2022-07-04T04:49:43;3.70;;;2.42;;
10959;SDS011;5532;50.978;13.872;2022-07-04T04:52:09;3.90;;;2.30;;
10959;SDS011;5532;50.978;13.872;2022-07-04T04:54:34;2.40;;;2.10;;
10959;SDS011;5532;50.978;13.872;2022-07-04T04:57:00;3.00;;;2.15;;
10959;SDS011;5532;50.978;13.872;2022-07-04T04:59:26;5.45;;;2.75;;
10959;SDS011;5532;50.978;13.872;2022-07-04T05:01:52;3.22;;;2.30;;
10959;SDS011;5532;50.978;13.872;2022-07-04T05:04:18;2.50;;;2.10;;
10959;SDS011;5532;50.978;13.872;2022-07-04T05:06:43;4.35;;;2.30;;
10959;SDS011;5532;50.978;13.872;2022-07-04T05:09:08;2.75;;;2.47;;
10959;SDS011;5532;50.978;13.872;2022-07-04T05:11:34;4.88;;;2.80;;
10959;SDS011;5532;50.978;13.872;2022-07-04T05:13:59;3.08;;;2.10;;
10959;SDS011;5532;50.978;13.872;2022-07-04T05:16:25;4.22;;;2.75;;
10959;SDS011;5532;50.978;13.872;2022-07-04T05:18:50;4.57;;;2.58;;
10959;SDS011;5532;50.978;13.872;2022-07-04T05:21:15;3.53;;;2.30;;
10959;SDS011;5532;50.978;13.872;2022-07-04T05:23:40;6.17;;;3.37;;
10959;SDS011;5532;50.978;13.872;2022-07-04T05:26:06;2.80;;;2.60;;
10959;SDS011;5532;50.978;13.872;2022-07-04T05:28:31;6.25;;;3.90;;
10959;SDS011;5532;50.978;13.872;2022-07-04T05:30:56;6.22;;;2.78;;
10959;SDS011;5532;50.978;13.872;2022-07-04T05:33:22;7.50;;;3.07;;
10959;SDS011;5532;50.978;13.872;2022-07-04T05:35:47;5.22;;;3.42;;
10959;SDS011;5532;50.978;13.872;2022-07-04T05:38:13;3.05;;;2.80;;
10959;SDS011;5532;50.978;13.872;2022-07-04T05:40:38;5.32;;;3.15;;
10959;SDS011;5532;50.978;13.872;2022-07-04T05:43:03;5.65;;;3.00;;
10959;SDS011;5532;50.978;13.872;2022-07-04T05:45:31;3.03;;;2.72;;
10959;SDS011;5532;50.978;13.872;2022-07-04T05:47:59;4.15;;;3.13;;
10959;SDS011;5532;50.978;13.872;2022-07-04T05:50:25;8.05;;;2.90;;
10959;SDS011;5532;50.978;13.872;2022-07-04T05:52:56;5.45;;;3.17;;
10959;SDS011;5532;50.978;13.872;2022-07-04T05:55:32;4.82;;;3.00;;
10959;SDS011;5532;50.978;13.872;2022-07-04T05:57:58;5.00;;;2.90;;
10959;SDS011;5532;50.978;13.872;2022-07-04T06:00:24;4.95;;;2.85;;
10959;SDS011;5532;50.978;13.872;2022-07-04T06:02:49;3.70;;;3.10;;
10959;SDS011;5532;50.978;13.872;2022-07-04T06:05:14;4.53;;;3.00;;
10959;SDS011;5532;50.978;13.872;2022-07-04T06:07:40;4.72;;;3.00;;
10959;SDS011;5532;50.978;13.872;2022-07-04T06:10:06;3.67;;;3.00;;
10959;SDS011;5532;50.978;13.872;2022-07-04T06:12:31;6.22;;;3.30;;
10959;SDS011;5532;50.978;13.872;2022-07-04T06:14:57;5.55;;;2.70;;
10959;SDS011;5532;50.978;13.872;2022-07-04T06:17:22;4.00;;;2.60;;
10959;SDS011;5532;50.978;13.872;2022-07-04T06:19:47;6.32;;;2.67;;
10959;SDS011;5532;50.978;13.872;2022-07-04T06:22:13;5.72;;;3.03;;
10959;SDS011;5532;50.978;13.872;2022-07-04T06:24:38;3.37;;;2.63;;
10959;SDS011;5532;50.978;13.872;2022-07-04T06:27:05;3.20;;;2.90;;
10959;SDS011;5532;50.978;13.872;2022-07-04T06:29:30;4.38;;;2.88;;
10959;SDS011;5532;50.978;13.872;2022-07-04T06:31:56;3.42;;;2.85;;
10959;SDS011;5532;50.978;13.872;2022-07-04T06:34:21;4.00;;;3.00;;
10959;SDS011;5532;50.978;13.872;2022-07-04T06:37:05;3.67;;;3.33;;
10959;SDS011;5532;50.978;13.872;2022-07-04T06:39:30;5.07;;;2.85;;
10959;SDS011;5532;50.978;13.872;2022-07-04T06:41:56;4.75;;;2.65;;
10959;SDS011;5532;50.978;13.872;2022-07-04T06:44:22;4.33;;;2.90;;
10959;SDS011;5532;50.978;13.872;2022-07-04T06:46:48;3.40;;;2.40;;
10959;SDS011;5532;50.978;13.872;2022-07-04T06:49:13;5.57;;;3.10;;
10959;SDS011;5532;50.978;13.872;2022-07-04T06:51:38;3.80;;;2.78;;
10959;SDS011;5532;50.978;13.872;2022-07-04T06:54:04;3.27;;;2.73;;
10959;SDS011;5532;50.978;13.872;2022-07-04T06:56:29;6.53;;;2.67;;
10959;SDS011;5532;50.978;13.872;2022-07-04T06:58:55;4.60;;;2.30;;
10959;SDS011;5532;50.978;13.872;2022-07-04T07:01:20;4.70;;;3.00;;
10959;SDS011;5532;50.978;13.872;2022-07-04T07:03:45;5.78;;;2.65;;
10959;SDS011;5532;50.978;13.872;2022-07-04T07:06:11;2.45;;;2.25;;
10959;SDS011;5532;50.978;13.872;2022-07-04T07:08:36;3.30;;;2.50;;
10959;SDS011;5532;50.978;13.872;2022-07-04T07:11:01;5.57;;;2.60;;
10959;SDS011;5532;50.978;13.872;2022-07-04T07:13:38;3.33;;;2.40;;
10959;SDS011;5532;50.978;13.872;2022-07-04T07:16:04;2.90;;;2.22;;
10959;SDS011;5532;50.978;13.872;2022-07-04T07:18:29;2.90;;;2.60;;
10959;SDS011;5532;50.978;13.872;2022-07-04T07:20:55;4.03;;;2.60;;
10959;SDS011;5532;50.978;13.872;2022-07-04T07:23:20;3.03;;;2.60;;
10959;SDS011;5532;50.978;13.872;2022-07-04T07:25:45;3.08;;;2.40;;
10959;SDS011;5532;50.978;13.872;2022-07-04T07:28:11;2.78;;;2.55;;
10959;SDS011;5532;50.978;13.872;2022-07-04T07:30:36;2.50;;;2.30;;
10959;SDS011;5532;50.978;13.872;2022-07-04T07:33:01;4.03;;;2.35;;
10959;SDS011;5532;50.978;13.872;2022-07-04T07:35:27;4.87;;;2.93;;
10959;SDS011;5532;50.978;13.872;2022-07-04T07:37:52;3.30;;;2.60;;
10959;SDS011;5532;50.978;13.872;2022-07-04T07:40:17;3.97;;;2.33;;
10959;SDS011;5532;50.978;13.872;2022-07-04T07:42:43;3.95;;;2.40;;
10959;SDS011;5532;50.978;13.872;2022-07-04T07:45:08;3.83;;;2.97;;
10959;SDS011;5532;50.978;13.872;2022-07-04T07:47:33;2.85;;;2.55;;
10959;SDS011;5532;50.978;13.872;2022-07-04T07:49:59;5.07;;;3.10;;
10959;SDS011;5532;50.978;13.872;2022-07-04T07:52:24;3.13;;;2.55;;
10959;SDS011;5532;50.978;13.872;2022-07-04T07:54:50;2.50;;;2.30;;
10959;SDS011;5532;50.978;13.872;2022-07-04T07:57:15;3.05;;;2.45;;
10959;SDS011;5532;50.978;13.872;2022-07-04T07:59:40;2.88;;;2.63;;
10959;SDS011;5532;50.978;13.872;2022-07-04T08:02:06;2.80;;;2.47;;
10959;SDS011;5532;50.978;13.872;2022-07-04T08:04:31;5.35;;;2.35;;
10959;SDS011;5532;50.978;13.872;2022-07-04T08:07:01;5.40;;;2.30;;
10959;SDS011;5532;50.978;13.872;2022-07-04T08:09:30;4.90;;;2.65;;
10959;SDS011;5532;50.978;13.872;2022-07-04T08:11:55;4.22;;;2.70;;
10959;SDS011;5532;50.978;13.872;2022-07-04T08:14:20;3.20;;;2.45;;
10959;SDS011;5532;50.978;13.872;2022-07-04T08:16:46;2.97;;;2.67;;
10959;SDS011;5532;50.978;13.872;2022-07-04T08:19:11;4.38;;;2.30;;
10959;SDS011;5532;50.978;13.872;2022-07-04T08:21:36;5.60;;;2.50;;
10959;SDS011;5532;50.978;13.872;2022-07-04T08:24:02;2.30;;;2.10;;
10959;SDS011;5532;50.978;13.872;2022-07-04T08:26:27;2.60;;;2.40;;
10959;SDS011;5532;50.978;13.872;2022-07-04T08:28:53;2.83;;;2.03;;
10959;SDS011;5532;50.978;13.872;2022-07-04T08:31:20;3.50;;;2.58;;
10959;SDS011;5532;50.978;13.872;2022-07-04T08:33:45;2.92;;;1.98;;
10959;SDS011;5532;50.978;13.872;2022-07-04T08:36:12;3.03;;;2.58;;
10959;SDS011;5532;50.978;13.872;2022-07-04T08:38:37;2.42;;;2.15;;
10959;SDS011;5532;50.978;13.872;2022-07-04T08:41:03;2.60;;;2.40;;
10959;SDS011;5532;50.978;13.872;2022-07-04T08:43:29;2.47;;;2.22;;
10959;SDS011;5532;50.978;13.872;2022-07-04T08:45:57;4.10;;;2.35;;
10959;SDS011;5532;50.978;13.872;2022-07-04T08:48:24;3.10;;;2.35;;
10959;SDS011;5532;50.978;13.872;2022-07-04T08:50:53;3.47;;;1.98;;
10959;SDS011;5532;50.978;13.872;2022-07-04T08:53:21;3.45;;;2.40;;
10959;SDS011;5532;50.978;13.872;2022-07-04T08:55:49;2.95;;;2.00;;
10959;SDS011;5532;50.978;13.872;2022-07-04T09:03:24;4.27;;;2.13;;
10959;SDS011;5532;50.978;13.872;2022-07-04T09:05:51;2.85;;;2.00;;
10959;SDS011;5532;50.978;13.872;2022-07-04T09:08:17;3.78;;;2.35;;
10959;SDS011;5532;50.978;13.872;2022-07-04T09:10:42;2.65;;;2.25;;
10959;SDS011;5532;50.978;13.872;2022-07-04T09:13:08;2.50;;;2.10;;
10959;SDS011;5532;50.978;13.872;2022-07-04T09:15:35;2.38;;;2.08;;
10959;SDS011;5532;50.978;13.872;2022-07-04T09:18:00;3.50;;;2.40;;
10959;SDS011;5532;50.978;13.872;2022-07-04T09:20:26;2.42;;;2.22;;
10959;SDS011;5532;50.978;13.872;2022-07-04T09:22:53;3.28;;;1.95;;
10959;SDS011;5532;50.978;13.872;2022-07-04T09:25:19;2.90;;;2.25;;
10959;SDS011;5532;50.978;13.872;2022-07-04T09:27:46;3.13;;;2.40;;
10959;SDS011;5532;50.978;13.872;2022-07-04T09:30:16;3.63;;;2.20;;
10959;SDS011;5532;50.978;13.872;2022-07-04T09:32:43;2.63;;;2.40;;
10959;SDS011;5532;50.978;13.872;2022-07-04T09:35:16;3.63;;;2.03;;
10959;SDS011;5532;50.978;13.872;2022-07-04T09:37:49;3.08;;;2.00;;
10959;SDS011;5532;50.978;13.872;2022-07-04T09:40:35;2.65;;;2.03;;
10959;SDS011;5532;50.978;13.872;2022-07-04T09:43:20;2.38;;;2.17;;
10959;SDS011;5532;50.978;13.872;2022-07-04T09:45:52;2.28;;;2.08;;
10959;SDS011;5532;50.978;13.872;2022-07-04T09:48:22;2.55;;;2.03;;
10959;SDS011;5532;50.978;13.872;2022-07-04T09:50:47;3.03;;;2.03;;
10959;SDS011;5532;50.978;13.872;2022-07-04T09:53:13;2.77;;;2.30;;
10959;SDS011;5532;50.978;13.872;2022-07-04T09:55:39;4.43;;;2.35;;
10959;SDS011;5532;50.978;13.872;2022-07-04T09:58:14;2.13;;;1.92;;
10959;SDS011;5532;50.978;13.872;2022-07-04T10:00:44;2.33;;;2.13;;
10959;SDS011;5532;50.978;13.872;2022-07-04T10:06:12;2.58;;;2.25;;
10959;SDS011;5532;50.978;13.872;2022-07-04T10:08:41;2.72;;;1.98;;
10959;SDS011;5532;50.978;13.872;2022-07-04T10:11:07;2.70;;;2.10;;
10959;SDS011;5532;50.978;13.872;2022-07-04T10:13:33;3.53;;;2.30;;
10959;SDS011;5532;50.978;13.872;2022-07-04T10:15:58;2.53;;;1.90;;
10959;SDS011;5532;50.978;13.872;2022-07-04T10:18:24;3.47;;;2.03;;
10959;SDS011;5532;50.978;13.872;2022-07-04T10:20:51;2.33;;;1.88;;
10959;SDS011;5532;50.978;13.872;2022-07-04T10:23:18;1.80;;;1.70;;
10959;SDS011;5532;50.978;13.872;2022-07-04T10:25:47;4.25;;;1.98;;
10959;SDS011;5532;50.978;13.872;2022-07-04T10:28:13;3.47;;;2.13;;
10959;SDS011;5532;50.978;13.872;2022-07-04T10:30:39;3.42;;;2.20;;
10959;SDS011;5532;50.978;13.872;2022-07-04T10:33:07;4.25;;;2.00;;
10959;SDS011;5532;50.978;13.872;2022-07-04T10:38:18;2.17;;;1.80;;
10959;SDS011;5532;50.978;13.872;2022-07-04T10:40:51;1.80;;;1.70;;
10959;SDS011;5532;50.978;13.872;2022-07-04T10:48:28;3.38;;;2.00;;
10959;SDS011;5532;50.978;13.872;2022-07-04T10:51:11;2.03;;;1.83;;
10959;SDS011;5532;50.978;13.872;2022-07-04T10:53:59;3.13;;;1.90;;
10959;SDS011;5532;50.978;13.872;2022-07-04T10:58:54;2.30;;;2.07;;
10959;SDS011;5532;50.978;13.872;2022-07-04T11:01:20;3.38;;;2.13;;
10959;SDS011;5532;50.978;13.872;2022-07-04T11:03:45;3.00;;;2.00;;
10959;SDS011;5532;50.978;13.872;2022-07-04T11:11:51;3.63;;;2.03;;
10959;SDS011;5532;50.978;13.872;2022-07-04T11:14:32;2.83;;;1.90;;
10959;SDS011;5532;50.978;13.872;2022-07-04T11:19:25;3.30;;;1.93;;
10959;SDS011;5532;50.978;13.872;2022-07-04T11:21:53;2.35;;;2.08;;
10959;SDS011;5532;50.978;13.872;2022-07-04T11:24:19;3.78;;;1.80;;
10959;SDS011;5532;50.978;13.872;2022-07-04T11:26:45;3.60;;;2.20;;
10959;SDS011;5532;50.978;13.872;2022-07-04T11:29:14;3.90;;;2.08;;
10959;SDS011;5532;50.978;13.872;2022-07-04T11:31:41;2.97;;;1.80;;
10959;SDS011;5532;50.978;13.872;2022-07-04T11:34:08;2.58;;;2.13;;
10959;SDS011;5532;50.978;13.872;2022-07-04T11:36:33;3.40;;;1.90;;
10959;SDS011;5532;50.978;13.872;2022-07-04T11:39:00;5.88;;;1.92;;
10959;SDS011;5532;50.978;13.872;2022-07-04T11:44:13;2.25;;;2.00;;
10959;SDS011;5532;50.978;13.872;2022-07-04T11:47:16;4.78;;;2.10;;
10959;SDS011;5532;50.978;13.872;2022-07-04T11:49:49;4.75;;;2.10;;
10959;SDS011;5532;50.978;13.872;2022-07-04T11:52:17;3.33;;;2.13;;
10959;SDS011;5532;50.978;13.872;2022-07-04T11:54:44;1.85;;;1.67;;
10959;SDS011;5532;50.978;13.872;2022-07-04T11:59:36;2.55;;;2.33;;
10959;SDS011;5532;50.978;13.872;2022-07-04T12:02:14;2.95;;;1.88;;
10959;SDS011;5532;50.978;13.872;2022-07-04T12:04:40;3.70;;;1.95;;
10959;SDS011;5532;50.978;13.872;2022-07-04T12:07:11;2.22;;;1.90;;
10959;SDS011;5532;50.978;13.872;2022-07-04T12:09:38;1.80;;;1.63;;
10959;SDS011;5532;50.978;13.872;2022-07-04T12:12:04;2.30;;;2.10;;
10959;SDS011;5532;50.978;13.872;2022-07-04T12:14:30;2.78;;;1.77;;
10959;SDS011;5532;50.978;13.872;2022-07-04T12:17:11;2.73;;;2.00;;
10959;SDS011;5532;50.978;13.872;2022-07-04T12:19:55;4.50;;;2.13;;
10959;SDS011;5532;50.978;13.872;2022-07-04T12:22:29;2.05;;;1.85;;
10959;SDS011;5532;50.978;13.872;2022-07-04T12:24:55;1.90;;;1.80;;
10959;SDS011;5532;50.978;13.872;2022-07-04T12:27:21;2.33;;;2.03;;
10959;SDS011;5532;50.978;13.872;2022-07-04T12:29:47;1.77;;;1.60;;
10959;SDS011;5532;50.978;13.872;2022-07-04T12:32:13;1.85;;;1.73;;
10959;SDS011;5532;50.978;13.872;2022-07-04T12:34:39;1.73;;;1.63;;
10959;SDS011;5532;50.978;13.872;2022-07-04T12:37:06;1.95;;;1.70;;
10959;SDS011;5532;50.978;13.872;2022-07-04T12:39:34;3.03;;;1.75;;
10959;SDS011;5532;50.978;13.872;2022-07-04T12:42:06;1.70;;;1.60;;
10959;SDS011;5532;50.978;13.872;2022-07-04T12:44:37;2.33;;;1.90;;
10959;SDS011;5532;50.978;13.872;2022-07-04T12:47:03;1.90;;;1.67;;
10959;SDS011;5532;50.978;13.872;2022-07-04T12:49:30;3.50;;;1.60;;
10959;SDS011;5532;50.978;13.872;2022-07-04T12:52:05;4.13;;;2.28;;
10959;SDS011;5532;50.978;13.872;2022-07-04T12:54:35;1.95;;;1.77;;
10959;SDS011;5532;50.978;13.872;2022-07-04T12:57:11;3.75;;;1.80;;
10959;SDS011;5532;50.978;13.872;2022-07-04T12:59:38;3.90;;;2.15;;
10959;SDS011;5532;50.978;13.872;2022-07-04T13:02:04;1.75;;;1.65;;
10959;SDS011;5532;50.978;13.872;2022-07-04T13:04:30;1.73;;;1.60;;
10959;SDS011;5532;50.978;13.872;2022-07-04T13:06:57;3.33;;;1.88;;
10959;SDS011;5532;50.978;13.872;2022-07-04T13:09:24;2.13;;;1.83;;
10959;SDS011;5532;50.978;13.872;2022-07-04T13:11:50;2.65;;;1.60;;
10959;SDS011;5532;50.978;13.872;2022-07-04T13:14:33;2.30;;;1.83;;
10959;SDS011;5532;50.978;13.872;2022-07-04T13:16:59;2.47;;;1.90;;
10959;SDS011;5532;50.978;13.872;2022-07-04T13:19:24;2.38;;;1.65;;
10959;SDS011;5532;50.978;13.872;2022-07-04T13:21:50;2.92;;;1.90;;
10959;SDS011;5532;50.978;13.872;2022-07-04T13:24:16;2.03;;;1.88;;
10959;SDS011;5532;50.978;13.872;2022-07-04T13:26:42;1.70;;;1.40;;
10959;SDS011;5532;50.978;13.872;2022-07-04T13:29:07;3.10;;;1.70;;
10959;SDS011;5532;50.978;13.872;2022-07-04T13:31:33;2.75;;;1.88;;
10959;SDS011;5532;50.978;13.872;2022-07-04T13:33:58;2.13;;;1.63;;
10959;SDS011;5532;50.978;13.872;2022-07-04T13:36:24;5.10;;;2.28;;
10959;SDS011;5532;50.978;13.872;2022-07-04T13:38:49;2.50;;;1.70;;
10959;SDS011;5532;50.978;13.872;2022-07-04T13:41:14;2.77;;;1.90;;
10959;SDS011;5532;50.978;13.872;2022-07-04T13:43:40;2.03;;;1.60;;
10959;SDS011;5532;50.978;13.872;2022-07-04T13:46:06;2.00;;;1.80;;
10959;SDS011;5532;50.978;13.872;2022-07-04T13:48:32;1.75;;;1.60;;
10959;SDS011;5532;50.978;13.872;2022-07-04T13:50:57;2.88;;;1.85;;
10959;SDS011;5532;50.978;13.872;2022-07-04T13:53:22;4.93;;;1.60;;
10959;SDS011;5532;50.978;13.872;2022-07-04T13:55:48;2.70;;;1.50;;
10959;SDS011;5532;50.978;13.872;2022-07-04T13:58:13;3.22;;;1.50;;
10959;SDS011;5532;50.978;13.872;2022-07-04T14:00:39;3.15;;;1.38;;
10959;SDS011;5532;50.978;13.872;2022-07-04T14:03:06;3.35;;;1.80;;
10959;SDS011;5532;50.978;13.872;2022-07-04T14:05:32;2.30;;;1.73;;
10959;SDS011;5532;50.978;13.872;2022-07-04T14:07:57;5.97;;;2.35;;
10959;SDS011;5532;50.978;13.872;2022-07-04T14:10:23;2.95;;;1.80;;
10959;SDS011;5532;50.978;13.872;2022-07-04T14:12:49;2.13;;;1.60;;
10959;SDS011;5532;50.978;13.872;2022-07-04T14:15:14;1.67;;;1.50;;
10959;SDS011;5532;50.978;13.872;2022-07-04T14:17:41;1.60;;;1.50;;
10959;SDS011;5532;50.978;13.872;2022-07-04T14:20:07;2.08;;;1.40;;
10959;SDS011;5532;50.978;13.872;2022-07-04T14:22:34;4.43;;;1.85;;
10959;SDS011;5532;50.978;13.872;2022-07-04T14:25:00;2.72;;;1.95;;
10959;SDS011;5532;50.978;13.872;2022-07-04T14:27:25;2.45;;;1.58;;
10959;SDS011;5532;50.978;13.872;2022-07-04T14:29:50;2.00;;;1.50;;
10959;SDS011;5532;50.978;13.872;2022-07-04T14:32:16;5.00;;;1.50;;
10959;SDS011;5532;50.978;13.872;2022-07-04T14:34:41;4.25;;;1.60;;
10959;SDS011;5532;50.978;13.872;2022-07-04T14:37:07;2.33;;;1.58;;
10959;SDS011;5532;50.978;13.872;2022-07-04T14:39:32;2.17;;;1.60;;
10959;SDS011;5532;50.978;13.872;2022-07-04T14:41:58;2.70;;;1.40;;
10959;SDS011;5532;50.978;13.872;2022-07-04T14:44:23;2.20;;;1.48;;
10959;SDS011;5532;50.978;13.872;2022-07-04T14:46:48;2.95;;;1.40;;
10959;SDS011;5532;50.978;13.872;2022-07-04T14:49:14;3.30;;;1.60;;
10959;SDS011;5532;50.978;13.872;2022-07-04T14:51:39;1.50;;;1.40;;
10959;SDS011;5532;50.978;13.872;2022-07-04T14:54:05;1.60;;;1.40;;
10959;SDS011;5532;50.978;13.872;2022-07-04T14:56:34;1.90;;;1.40;;
10959;SDS011;5532;50.978;13.872;2022-07-04T14:58:59;2.00;;;1.42;;
10959;SDS011;5532;50.978;13.872;2022-07-04T15:01:25;1.60;;;1.50;;
10959;SDS011;5532;50.978;13.872;2022-07-04T15:03:51;1.45;;;1.10;;
10959;SDS011;5532;50.978;13.872;2022-07-04T15:06:17;2.50;;;1.50;;
10959;SDS011;5532;50.978;13.872;2022-07-04T15:08:43;1.95;;;1.58;;
10959;SDS011;5532;50.978;13.872;2022-07-04T15:11:08;4.72;;;1.90;;
10959;SDS011;5532;50.978;13.872;2022-07-04T15:13:33;2.92;;;1.40;;
10959;SDS011;5532;50.978;13.872;2022-07-04T15:15:59;2.50;;;1.50;;
10959;SDS011;5532;50.978;13.872;2022-07-04T15:18:24;1.80;;;1.70;;
10959;SDS011;5532;50.978;13.872;2022-07-04T15:20:49;3.67;;;1.90;;